sensor_id;sensor_type;location;lat;lon;timestamp;temperature;humidity
11284;DHT22;5698;47.332;11.180;2022-09-23T00:00:15;4.10;99.90
11284;DHT22;5698;47.332;11.180;2022-09-23T00:02:44;4.10;99.90
11284;DHT22;5698;47.332;11.180;2022-09-23T00:05:13;4.10;99.90
11284;DHT22;5698;47.332;11.180;2022-09-23T00:07:40;4.10;99.90
11284;DHT22;5698;47.332;11.180;2022-09-23T00:10:08;4.20;99.90
11284;DHT22;5698;47.332;11.180;2022-09-23T00:12:35;4.20;99.90
11284;DHT22;5698;47.332;11.180;2022-09-23T00:15:04;4.20;99.90
11284;DHT22;5698;47.332;11.180;2022-09-23T00:17:31;4.20;99.90
11284;DHT22;5698;47.332;11.180;2022-09-23T00:19:58;4.20;99.90
11284;DHT22;5698;47.332;11.180;2022-09-23T00:22:25;4.10;99.90
11284;DHT22;5698;47.332;11.180;2022-09-23T00:24:52;4.00;99.90
11284;DHT22;5698;47.332;11.180;2022-09-23T00:27:19;3.90;99.90
11284;DHT22;5698;47.332;11.180;2022-09-23T00:29:47;3.90;99.90
11284;DHT22;5698;47.332;11.180;2022-09-23T00:32:15;3.90;99.90
11284;DHT22;5698;47.332;11.180;2022-09-23T00:34:43;4.00;99.90
11284;DHT22;5698;47.332;11.180;2022-09-23T00:37:10;3.90;99.90
11284;DHT22;5698;47.332;11.180;2022-09-23T00:39:37;4.00;99.90
11284;DHT22;5698;47.332;11.180;2022-09-23T00:42:04;3.90;99.90
11284;DHT22;5698;47.332;11.180;2022-09-23T00:44:45;3.80;99.90
11284;DHT22;5698;47.332;11.180;2022-09-23T00:47:18;3.80;99.90
11284;DHT22;5698;47.332;11.180;2022-09-23T00:49:50;3.70;99.90
11284;DHT22;5698;47.332;11.180;2022-09-23T00:52:20;3.70;99.90
11284;DHT22;5698;47.332;11.180;2022-09-23T00:54:51;3.60;99.90
11284;DHT22;5698;47.332;11.180;2022-09-23T00:57:20;3.60;99.90
11284;DHT22;5698;47.332;11.180;2022-09-23T00:59:48;3.60;99.90
11284;DHT22;5698;47.332;11.180;2022-09-23T01:02:17;3.60;99.90
11284;DHT22;5698;47.332;11.180;2022-09-23T01:04:47;3.50;99.90
11284;DHT22;5698;47.332;11.180;2022-09-23T01:07:14;3.50;99.90
11284;DHT22;5698;47.332;11.180;2022-09-23T01:09:41;3.50;99.90
11284;DHT22;5698;47.332;11.180;2022-09-23T01:12:21;3.50;99.90
11284;DHT22;5698;47.332;11.180;2022-09-23T01:14:58;3.50;99.90
11284;DHT22;5698;47.332;11.180;2022-09-23T01:17:33;3.40;99.90
11284;DHT22;5698;47.332;11.180;2022-09-23T01:20:21;3.40;99.90
11284;DHT22;5698;47.332;11.180;2022-09-23T01:23:02;3.40;99.90
11284;DHT22;5698;47.332;11.180;2022-09-23T01:25:50;3.40;99.90
11284;DHT22;5698;47.332;11.180;2022-09-23T01:28:40;3.30;99.90
11284;DHT22;5698;47.332;11.180;2022-09-23T01:31:16;3.30;99.90
11284;DHT22;5698;47.332;11.180;2022-09-23T01:33:49;3.30;99.90
11284;DHT22;5698;47.332;11.180;2022-09-23T01:36:21;3.30;99.90
11284;DHT22;5698;47.332;11.180;2022-09-23T01:38:55;3.30;99.90
11284;DHT22;5698;47.332;11.180;2022-09-23T01:44:29;3.20;99.90
11284;DHT22;5698;47.332;11.180;2022-09-23T01:47:03;3.20;99.90
11284;DHT22;5698;47.332;11.180;2022-09-23T01:49:40;3.30;99.90
11284;DHT22;5698;47.332;11.180;2022-09-23T01:52:15;3.30;99.90
11284;DHT22;5698;47.332;11.180;2022-09-23T01:54:47;3.40;99.90
11284;DHT22;5698;47.332;11.180;2022-09-23T01:57:18;3.40;99.90
11284;DHT22;5698;47.332;11.180;2022-09-23T01:59:50;3.30;99.90
11284;DHT22;5698;47.332;11.180;2022-09-23T02:02:22;3.30;99.90
11284;DHT22;5698;47.332;11.180;2022-09-23T02:04:55;3.30;99.90
11284;DHT22;5698;47.332;11.180;2022-09-23T02:07:27;3.30;99.90
11284;DHT22;5698;47.332;11.180;2022-09-23T02:09:58;3.20;99.90
11284;DHT22;5698;47.332;11.180;2022-09-23T02:12:29;3.20;99.90
11284;DHT22;5698;47.332;11.180;2022-09-23T02:15:02;3.20;99.90
11284;DHT22;5698;47.332;11.180;2022-09-23T02:17:33;3.20;99.90
11284;DHT22;5698;47.332;11.180;2022-09-23T02:20:05;3.10;99.90
11284;DHT22;5698;47.332;11.180;2022-09-23T02:22:38;3.20;99.90
11284;DHT22;5698;47.332;11.180;2022-09-23T02:25:07;3.20;99.90
11284;DHT22;5698;47.332;11.180;2022-09-23T02:27:38;3.10;99.90
11284;DHT22;5698;47.332;11.180;2022-09-23T02:30:10;3.00;99.90
11284;DHT22;5698;47.332;11.180;2022-09-23T02:32:45;3.10;99.90
11284;DHT22;5698;47.332;11.180;2022-09-23T02:35:18;3.00;99.90
11284;DHT22;5698;47.332;11.180;2022-09-23T02:37:56;3.00;99.90
11284;DHT22;5698;47.332;11.180;2022-09-23T02:40:32;3.10;99.90
11284;DHT22;5698;47.332;11.180;2022-09-23T02:43:06;3.10;99.90
11284;DHT22;5698;47.332;11.180;2022-09-23T02:45:35;3.10;99.90
11284;DHT22;5698;47.332;11.180;2022-09-23T02:48:08;3.20;99.90
11284;DHT22;5698;47.332;11.180;2022-09-23T02:50:38;3.10;99.90
11284;DHT22;5698;47.332;11.180;2022-09-23T02:53:06;3.10;99.90
11284;DHT22;5698;47.332;11.180;2022-09-23T02:55:33;3.10;99.90
11284;DHT22;5698;47.332;11.180;2022-09-23T02:58:01;3.20;99.90
11284;DHT22;5698;47.332;11.180;2022-09-23T03:00:34;3.10;99.90
11284;DHT22;5698;47.332;11.180;2022-09-23T03:03:14;3.10;99.90
11284;DHT22;5698;47.332;11.180;2022-09-23T03:05:52;3.10;99.90
11284;DHT22;5698;47.332;11.180;2022-09-23T03:08:29;3.10;99.90
11284;DHT22;5698;47.332;11.180;2022-09-23T03:11:05;3.20;99.90
11284;DHT22;5698;47.332;11.180;2022-09-23T03:13:40;3.10;99.90
11284;DHT22;5698;47.332;11.180;2022-09-23T03:16:18;3.10;99.90
11284;DHT22;5698;47.332;11.180;2022-09-23T03:18:52;3.10;99.90
11284;DHT22;5698;47.332;11.180;2022-09-23T03:21:25;3.10;99.90
11284;DHT22;5698;47.332;11.180;2022-09-23T03:23:58;3.10;99.90
11284;DHT22;5698;47.332;11.180;2022-09-23T03:26:29;3.10;99.90
11284;DHT22;5698;47.332;11.180;2022-09-23T03:28:57;3.20;99.90
11284;DHT22;5698;47.332;11.180;2022-09-23T03:31:28;3.10;99.90
11284;DHT22;5698;47.332;11.180;2022-09-23T03:33:59;3.10;99.90
11284;DHT22;5698;47.332;11.180;2022-09-23T03:36:31;3.10;99.90
11284;DHT22;5698;47.332;11.180;2022-09-23T03:39:25;3.10;99.90
11284;DHT22;5698;47.332;11.180;2022-09-23T03:41:55;3.00;99.90
11284;DHT22;5698;47.332;11.180;2022-09-23T03:44:24;2.90;99.90
11284;DHT22;5698;47.332;11.180;2022-09-23T03:46:53;2.90;99.90
11284;DHT22;5698;47.332;11.180;2022-09-23T03:49:27;2.90;99.90
11284;DHT22;5698;47.332;11.180;2022-09-23T03:51:54;2.80;99.90
11284;DHT22;5698;47.332;11.180;2022-09-23T03:54:21;2.90;99.90
11284;DHT22;5698;47.332;11.180;2022-09-23T03:56:48;2.80;99.90
11284;DHT22;5698;47.332;11.180;2022-09-23T03:59:15;2.80;99.90
11284;DHT22;5698;47.332;11.180;2022-09-23T04:01:42;2.80;99.90
11284;DHT22;5698;47.332;11.180;2022-09-23T04:04:10;2.80;99.90
11284;DHT22;5698;47.332;11.180;2022-09-23T04:06:38;2.80;99.90
11284;DHT22;5698;47.332;11.180;2022-09-23T04:09:06;2.70;99.90
11284;DHT22;5698;47.332;11.180;2022-09-23T04:11:33;2.80;99.90
11284;DHT22;5698;47.332;11.180;2022-09-23T04:14:00;2.70;99.90
11284;DHT22;5698;47.332;11.180;2022-09-23T04:16:27;2.70;99.90
11284;DHT22;5698;47.332;11.180;2022-09-23T04:18:55;2.60;99.90
11284;DHT22;5698;47.332;11.180;2022-09-23T04:21:21;2.70;99.90
11284;DHT22;5698;47.332;11.180;2022-09-23T04:23:50;2.60;99.90
11284;DHT22;5698;47.332;11.180;2022-09-23T04:26:17;2.60;99.90
11284;DHT22;5698;47.332;11.180;2022-09-23T04:28:44;2.60;99.90
11284;DHT22;5698;47.332;11.180;2022-09-23T04:31:11;2.70;99.90
11284;DHT22;5698;47.332;11.180;2022-09-23T04:33:38;2.70;99.90
11284;DHT22;5698;47.332;11.180;2022-09-23T04:36:06;2.60;99.90
11284;DHT22;5698;47.332;11.180;2022-09-23T04:38:33;2.60;99.90
11284;DHT22;5698;47.332;11.180;2022-09-23T04:41:01;2.70;99.90
11284;DHT22;5698;47.332;11.180;2022-09-23T04:43:29;2.70;99.90
11284;DHT22;5698;47.332;11.180;2022-09-23T04:45:59;2.80;99.90
11284;DHT22;5698;47.332;11.180;2022-09-23T04:48:26;2.70;99.90
11284;DHT22;5698;47.332;11.180;2022-09-23T04:50:54;2.60;99.90
11284;DHT22;5698;47.332;11.180;2022-09-23T04:53:21;2.60;99.90
11284;DHT22;5698;47.332;11.180;2022-09-23T04:55:47;2.50;99.90
11284;DHT22;5698;47.332;11.180;2022-09-23T04:58:18;2.50;99.90
11284;DHT22;5698;47.332;11.180;2022-09-23T05:00:47;2.50;99.90
11284;DHT22;5698;47.332;11.180;2022-09-23T05:03:14;2.50;99.90
11284;DHT22;5698;47.332;11.180;2022-09-23T05:05:41;2.50;99.90
11284;DHT22;5698;47.332;11.180;2022-09-23T05:08:08;2.50;99.90
11284;DHT22;5698;47.332;11.180;2022-09-23T05:10:35;2.40;99.90
11284;DHT22;5698;47.332;11.180;2022-09-23T05:13:02;2.40;99.90
11284;DHT22;5698;47.332;11.180;2022-09-23T05:15:30;2.40;99.90
11284;DHT22;5698;47.332;11.180;2022-09-23T05:17:57;2.40;99.90
11284;DHT22;5698;47.332;11.180;2022-09-23T05:20:24;2.40;99.90
11284;DHT22;5698;47.332;11.180;2022-09-23T05:22:52;2.50;99.90
11284;DHT22;5698;47.332;11.180;2022-09-23T05:25:20;2.60;99.90
11284;DHT22;5698;47.332;11.180;2022-09-23T05:27:48;2.50;99.90
11284;DHT22;5698;47.332;11.180;2022-09-23T05:30:15;2.50;99.90
11284;DHT22;5698;47.332;11.180;2022-09-23T05:32:43;2.50;99.90
11284;DHT22;5698;47.332;11.180;2022-09-23T05:35:11;2.50;99.90
11284;DHT22;5698;47.332;11.180;2022-09-23T05:37:38;2.50;99.90
11284;DHT22;5698;47.332;11.180;2022-09-23T05:40:05;2.40;99.90
11284;DHT22;5698;47.332;11.180;2022-09-23T05:42:32;2.40;99.90
11284;DHT22;5698;47.332;11.180;2022-09-23T05:44:59;2.40;99.90
11284;DHT22;5698;47.332;11.180;2022-09-23T05:47:26;2.40;99.90
11284;DHT22;5698;47.332;11.180;2022-09-23T05:49:54;2.30;99.90
11284;DHT22;5698;47.332;11.180;2022-09-23T05:52:21;2.30;99.90
11284;DHT22;5698;47.332;11.180;2022-09-23T05:54:50;2.40;99.90
11284;DHT22;5698;47.332;11.180;2022-09-23T05:57:17;2.40;99.90
11284;DHT22;5698;47.332;11.180;2022-09-23T05:59:45;2.40;99.90
11284;DHT22;5698;47.332;11.180;2022-09-23T06:02:13;2.50;99.90
11284;DHT22;5698;47.332;11.180;2022-09-23T06:04:40;2.50;99.90
11284;DHT22;5698;47.332;11.180;2022-09-23T06:07:08;2.50;99.90
11284;DHT22;5698;47.332;11.180;2022-09-23T06:09:36;2.60;99.90
11284;DHT22;5698;47.332;11.180;2022-09-23T06:12:03;2.60;99.90
11284;DHT22;5698;47.332;11.180;2022-09-23T06:14:32;2.50;99.90
11284;DHT22;5698;47.332;11.180;2022-09-23T06:16:59;2.50;99.90
11284;DHT22;5698;47.332;11.180;2022-09-23T06:19:26;2.60;99.90
11284;DHT22;5698;47.332;11.180;2022-09-23T06:21:53;2.70;99.90
11284;DHT22;5698;47.332;11.180;2022-09-23T06:24:22;2.70;99.90
11284;DHT22;5698;47.332;11.180;2022-09-23T06:26:49;2.70;99.90
11284;DHT22;5698;47.332;11.180;2022-09-23T06:29:16;2.70;99.90
11284;DHT22;5698;47.332;11.180;2022-09-23T06:31:43;2.70;99.90
11284;DHT22;5698;47.332;11.180;2022-09-23T06:34:11;2.90;99.90
11284;DHT22;5698;47.332;11.180;2022-09-23T06:36:39;3.10;99.90
11284;DHT22;5698;47.332;11.180;2022-09-23T06:39:06;3.40;99.90
11284;DHT22;5698;47.332;11.180;2022-09-23T06:41:34;3.80;99.90
11284;DHT22;5698;47.332;11.180;2022-09-23T06:44:02;4.10;99.90
11284;DHT22;5698;47.332;11.180;2022-09-23T06:46:29;4.40;99.90
11284;DHT22;5698;47.332;11.180;2022-09-23T06:48:56;4.70;99.90
11284;DHT22;5698;47.332;11.180;2022-09-23T06:51:23;5.00;99.90
11284;DHT22;5698;47.332;11.180;2022-09-23T06:53:50;5.20;99.90
11284;DHT22;5698;47.332;11.180;2022-09-23T06:56:17;5.50;99.90
11284;DHT22;5698;47.332;11.180;2022-09-23T06:58:48;5.70;99.90
11284;DHT22;5698;47.332;11.180;2022-09-23T07:01:17;6.00;99.90
11284;DHT22;5698;47.332;11.180;2022-09-23T07:03:45;6.20;99.90
11284;DHT22;5698;47.332;11.180;2022-09-23T07:06:13;6.50;99.90
11284;DHT22;5698;47.332;11.180;2022-09-23T07:08:42;6.80;99.90
11284;DHT22;5698;47.332;11.180;2022-09-23T07:11:10;7.10;99.90
11284;DHT22;5698;47.332;11.180;2022-09-23T07:13:38;7.30;99.90
11284;DHT22;5698;47.332;11.180;2022-09-23T07:16:07;7.60;99.90
11284;DHT22;5698;47.332;11.180;2022-09-23T07:18:35;7.80;99.90
11284;DHT22;5698;47.332;11.180;2022-09-23T07:21:07;7.90;99.90
11284;DHT22;5698;47.332;11.180;2022-09-23T07:23:34;8.20;99.90
11284;DHT22;5698;47.332;11.180;2022-09-23T07:26:02;8.30;99.90
11284;DHT22;5698;47.332;11.180;2022-09-23T07:28:29;8.50;99.90
11284;DHT22;5698;47.332;11.180;2022-09-23T07:31:02;8.80;99.90
11284;DHT22;5698;47.332;11.180;2022-09-23T07:33:30;9.10;99.90
11284;DHT22;5698;47.332;11.180;2022-09-23T07:35:57;9.30;99.90
11284;DHT22;5698;47.332;11.180;2022-09-23T07:38:24;9.60;99.90
11284;DHT22;5698;47.332;11.180;2022-09-23T07:40:59;9.70;99.90
11284;DHT22;5698;47.332;11.180;2022-09-23T07:43:27;10.00;99.90
11284;DHT22;5698;47.332;11.180;2022-09-23T07:45:57;10.30;99.90
11284;DHT22;5698;47.332;11.180;2022-09-23T07:48:25;10.40;99.90
11284;DHT22;5698;47.332;11.180;2022-09-23T07:50:53;10.60;99.90
11284;DHT22;5698;47.332;11.180;2022-09-23T07:53:20;10.90;99.90
11284;DHT22;5698;47.332;11.180;2022-09-23T07:55:51;11.00;99.90
11284;DHT22;5698;47.332;11.180;2022-09-23T07:58:18;11.10;99.90
11284;DHT22;5698;47.332;11.180;2022-09-23T08:00:45;11.40;99.90
11284;DHT22;5698;47.332;11.180;2022-09-23T08:03:13;11.60;99.90
11284;DHT22;5698;47.332;11.180;2022-09-23T08:05:40;11.90;99.10
11284;DHT22;5698;47.332;11.180;2022-09-23T08:08:08;12.00;98.20
11284;DHT22;5698;47.332;11.180;2022-09-23T08:10:36;12.20;96.20
11284;DHT22;5698;47.332;11.180;2022-09-23T08:13:03;12.30;95.40
11284;DHT22;5698;47.332;11.180;2022-09-23T08:15:30;12.50;95.00
11284;DHT22;5698;47.332;11.180;2022-09-23T08:17:57;12.60;94.30
11284;DHT22;5698;47.332;11.180;2022-09-23T08:20:26;12.70;93.30
11284;DHT22;5698;47.332;11.180;2022-09-23T08:23:15;12.80;93.00
11284;DHT22;5698;47.332;11.180;2022-09-23T08:25:44;13.10;93.60
11284;DHT22;5698;47.332;11.180;2022-09-23T08:28:12;13.30;92.10
11284;DHT22;5698;47.332;11.180;2022-09-23T08:30:42;13.30;91.90
11284;DHT22;5698;47.332;11.180;2022-09-23T08:33:09;13.60;92.10
11284;DHT22;5698;47.332;11.180;2022-09-23T08:35:36;13.80;91.80
11284;DHT22;5698;47.332;11.180;2022-09-23T08:38:03;14.10;87.70
11284;DHT22;5698;47.332;11.180;2022-09-23T08:40:34;13.90;84.90
11284;DHT22;5698;47.332;11.180;2022-09-23T08:43:04;13.90;87.30
11284;DHT22;5698;47.332;11.180;2022-09-23T08:45:33;14.00;85.20
11284;DHT22;5698;47.332;11.180;2022-09-23T08:48:04;14.10;86.70
11284;DHT22;5698;47.332;11.180;2022-09-23T08:50:39;14.50;85.10
11284;DHT22;5698;47.332;11.180;2022-09-23T08:53:12;14.90;86.10
11284;DHT22;5698;47.332;11.180;2022-09-23T08:55:47;15.10;79.90
11284;DHT22;5698;47.332;11.180;2022-09-23T08:58:35;15.30;81.40
11284;DHT22;5698;47.332;11.180;2022-09-23T09:01:12;15.60;82.00
11284;DHT22;5698;47.332;11.180;2022-09-23T09:03:45;16.00;74.70
11284;DHT22;5698;47.332;11.180;2022-09-23T09:06:19;16.30;79.30
11284;DHT22;5698;47.332;11.180;2022-09-23T09:08:53;16.70;77.00
11284;DHT22;5698;47.332;11.180;2022-09-23T09:11:28;17.00;66.80
11284;DHT22;5698;47.332;11.180;2022-09-23T09:14:02;16.80;65.20
11284;DHT22;5698;47.332;11.180;2022-09-23T09:16:46;16.90;66.70
11284;DHT22;5698;47.332;11.180;2022-09-23T09:19:18;16.70;65.00
11284;DHT22;5698;47.332;11.180;2022-09-23T09:21:49;17.00;67.40
11284;DHT22;5698;47.332;11.180;2022-09-23T09:24:22;17.20;67.90
11284;DHT22;5698;47.332;11.180;2022-09-23T09:26:52;17.60;64.40
11284;DHT22;5698;47.332;11.180;2022-09-23T09:29:23;17.70;63.30
11284;DHT22;5698;47.332;11.180;2022-09-23T09:31:52;17.90;59.00
11284;DHT22;5698;47.332;11.180;2022-09-23T09:34:26;17.90;60.70
11284;DHT22;5698;47.332;11.180;2022-09-23T09:37:01;17.90;61.30
11284;DHT22;5698;47.332;11.180;2022-09-23T09:39:30;17.90;59.10
11284;DHT22;5698;47.332;11.180;2022-09-23T09:41:58;17.80;59.50
11284;DHT22;5698;47.332;11.180;2022-09-23T09:44:29;17.80;57.70
11284;DHT22;5698;47.332;11.180;2022-09-23T09:47:10;18.00;60.50
11284;DHT22;5698;47.332;11.180;2022-09-23T09:49:44;18.30;56.10
11284;DHT22;5698;47.332;11.180;2022-09-23T09:52:14;18.50;55.30
11284;DHT22;5698;47.332;11.180;2022-09-23T09:54:44;18.70;55.00
11284;DHT22;5698;47.332;11.180;2022-09-23T09:57:25;19.00;56.70
11284;DHT22;5698;47.332;11.180;2022-09-23T09:59:54;19.00;56.10
11284;DHT22;5698;47.332;11.180;2022-09-23T10:02:25;19.30;55.20
11284;DHT22;5698;47.332;11.180;2022-09-23T10:04:56;18.90;55.40
11284;DHT22;5698;47.332;11.180;2022-09-23T10:07:26;19.20;55.70
11284;DHT22;5698;47.332;11.180;2022-09-23T10:09:54;19.50;54.60
11284;DHT22;5698;47.332;11.180;2022-09-23T10:12:24;19.60;53.70
11284;DHT22;5698;47.332;11.180;2022-09-23T10:14:55;19.60;57.20
11284;DHT22;5698;47.332;11.180;2022-09-23T10:17:25;19.80;56.60
11284;DHT22;5698;47.332;11.180;2022-09-23T10:19:56;19.70;55.90
11284;DHT22;5698;47.332;11.180;2022-09-23T10:22:26;19.60;54.80
11284;DHT22;5698;47.332;11.180;2022-09-23T10:24:59;19.70;62.30
11284;DHT22;5698;47.332;11.180;2022-09-23T10:27:30;20.00;59.20
11284;DHT22;5698;47.332;11.180;2022-09-23T10:29:59;19.80;57.60
11284;DHT22;5698;47.332;11.180;2022-09-23T10:32:30;20.10;60.20
11284;DHT22;5698;47.332;11.180;2022-09-23T10:35:02;19.80;60.00
11284;DHT22;5698;47.332;11.180;2022-09-23T10:37:31;20.10;62.40
11284;DHT22;5698;47.332;11.180;2022-09-23T10:40:00;20.70;58.70
11284;DHT22;5698;47.332;11.180;2022-09-23T10:43:04;21.20;58.90
11284;DHT22;5698;47.332;11.180;2022-09-23T10:45:59;21.70;58.20
11284;DHT22;5698;47.332;11.180;2022-09-23T10:48:52;21.80;57.30
11284;DHT22;5698;47.332;11.180;2022-09-23T10:51:28;22.00;56.20
11284;DHT22;5698;47.332;11.180;2022-09-23T10:54:02;21.80;54.90
11284;DHT22;5698;47.332;11.180;2022-09-23T10:56:35;21.80;50.90
11284;DHT22;5698;47.332;11.180;2022-09-23T10:59:35;21.80;53.10
11284;DHT22;5698;47.332;11.180;2022-09-23T11:02:24;21.80;53.30
11284;DHT22;5698;47.332;11.180;2022-09-23T11:05:24;21.90;51.70
11284;DHT22;5698;47.332;11.180;2022-09-23T11:08:01;21.60;52.60
11284;DHT22;5698;47.332;11.180;2022-09-23T11:10:57;21.60;49.70
11284;DHT22;5698;47.332;11.180;2022-09-23T11:13:46;21.30;50.50
11284;DHT22;5698;47.332;11.180;2022-09-23T11:16:28;20.90;52.80
11284;DHT22;5698;47.332;11.180;2022-09-23T11:19:10;20.90;52.00
11284;DHT22;5698;47.332;11.180;2022-09-23T11:22:05;20.80;53.50
11284;DHT22;5698;47.332;11.180;2022-09-23T11:24:46;20.90;53.40
11284;DHT22;5698;47.332;11.180;2022-09-23T11:27:25;21.00;53.30
11284;DHT22;5698;47.332;11.180;2022-09-23T11:30:06;21.40;54.40
11284;DHT22;5698;47.332;11.180;2022-09-23T11:32:57;21.70;55.00
11284;DHT22;5698;47.332;11.180;2022-09-23T11:35:35;21.90;54.10
11284;DHT22;5698;47.332;11.180;2022-09-23T11:38:09;22.20;54.70
11284;DHT22;5698;47.332;11.180;2022-09-23T11:40:37;22.00;53.60
11284;DHT22;5698;47.332;11.180;2022-09-23T11:43:14;21.60;51.60
11284;DHT22;5698;47.332;11.180;2022-09-23T11:45:46;21.40;55.30
11284;DHT22;5698;47.332;11.180;2022-09-23T11:48:20;21.50;53.10
11284;DHT22;5698;47.332;11.180;2022-09-23T11:50:57;21.80;53.60
11284;DHT22;5698;47.332;11.180;2022-09-23T11:53:36;22.00;53.60
11284;DHT22;5698;47.332;11.180;2022-09-23T11:56:08;21.70;52.30
11284;DHT22;5698;47.332;11.180;2022-09-23T11:58:40;21.50;53.10
11284;DHT22;5698;47.332;11.180;2022-09-23T12:01:14;21.10;54.00
11284;DHT22;5698;47.332;11.180;2022-09-23T12:03:48;21.50;55.70
11284;DHT22;5698;47.332;11.180;2022-09-23T12:06:20;22.10;55.50
11284;DHT22;5698;47.332;11.180;2022-09-23T12:08:52;22.50;55.40
11284;DHT22;5698;47.332;11.180;2022-09-23T12:11:27;22.80;54.70
11284;DHT22;5698;47.332;11.180;2022-09-23T12:14:03;23.00;51.60
11284;DHT22;5698;47.332;11.180;2022-09-23T12:19:40;23.60;49.10
11284;DHT22;5698;47.332;11.180;2022-09-23T12:22:21;23.70;50.00
11284;DHT22;5698;47.332;11.180;2022-09-23T12:24:56;23.80;50.00
11284;DHT22;5698;47.332;11.180;2022-09-23T12:27:31;24.00;49.10
11284;DHT22;5698;47.332;11.180;2022-09-23T12:30:01;24.20;48.90
11284;DHT22;5698;47.332;11.180;2022-09-23T12:32:28;24.30;48.10
11284;DHT22;5698;47.332;11.180;2022-09-23T12:34:57;24.40;48.10
11284;DHT22;5698;47.332;11.180;2022-09-23T12:37:27;24.40;49.80
11284;DHT22;5698;47.332;11.180;2022-09-23T12:40:00;24.10;49.80
11284;DHT22;5698;47.332;11.180;2022-09-23T12:42:27;23.80;50.80
11284;DHT22;5698;47.332;11.180;2022-09-23T12:45:17;23.40;51.40
11284;DHT22;5698;47.332;11.180;2022-09-23T12:47:45;23.20;51.70
11284;DHT22;5698;47.332;11.180;2022-09-23T12:50:51;23.10;52.00
11284;DHT22;5698;47.332;11.180;2022-09-23T12:53:56;22.90;52.40
11284;DHT22;5698;47.332;11.180;2022-09-23T12:56:56;23.10;52.80
11284;DHT22;5698;47.332;11.180;2022-09-23T12:59:26;23.20;52.90
11284;DHT22;5698;47.332;11.180;2022-09-23T13:01:54;23.30;51.70
11284;DHT22;5698;47.332;11.180;2022-09-23T13:04:41;23.40;52.80
11284;DHT22;5698;47.332;11.180;2022-09-23T13:07:30;23.30;53.90
11284;DHT22;5698;47.332;11.180;2022-09-23T13:10:05;23.50;53.20
11284;DHT22;5698;47.332;11.180;2022-09-23T13:12:36;23.50;53.30
11284;DHT22;5698;47.332;11.180;2022-09-23T13:15:16;23.50;53.00
11284;DHT22;5698;47.332;11.180;2022-09-23T13:17:46;23.60;52.80
11284;DHT22;5698;47.332;11.180;2022-09-23T13:20:31;23.70;52.70
11284;DHT22;5698;47.332;11.180;2022-09-23T13:23:15;23.60;53.10
11284;DHT22;5698;47.332;11.180;2022-09-23T13:25:46;23.40;53.10
11284;DHT22;5698;47.332;11.180;2022-09-23T13:28:25;23.00;53.40
11284;DHT22;5698;47.332;11.180;2022-09-23T13:30:52;22.80;53.90
11284;DHT22;5698;47.332;11.180;2022-09-23T13:33:28;22.80;55.40
11284;DHT22;5698;47.332;11.180;2022-09-23T13:36:00;22.70;54.70
11284;DHT22;5698;47.332;11.180;2022-09-23T13:38:30;22.70;54.80
11284;DHT22;5698;47.332;11.180;2022-09-23T13:41:01;22.60;54.60
11284;DHT22;5698;47.332;11.180;2022-09-23T13:43:31;22.70;55.20
11284;DHT22;5698;47.332;11.180;2022-09-23T13:46:01;22.50;56.10
11284;DHT22;5698;47.332;11.180;2022-09-23T13:48:29;22.10;56.50
11284;DHT22;5698;47.332;11.180;2022-09-23T13:50:58;21.80;57.30
11284;DHT22;5698;47.332;11.180;2022-09-23T13:53:32;21.70;57.60
11284;DHT22;5698;47.332;11.180;2022-09-23T13:56:01;21.60;57.80
11284;DHT22;5698;47.332;11.180;2022-09-23T13:58:30;21.50;58.50
11284;DHT22;5698;47.332;11.180;2022-09-23T14:00:57;21.20;59.00
11284;DHT22;5698;47.332;11.180;2022-09-23T14:03:28;20.90;59.50
11284;DHT22;5698;47.332;11.180;2022-09-23T14:05:57;20.50;60.50
11284;DHT22;5698;47.332;11.180;2022-09-23T14:08:25;20.20;60.70
11284;DHT22;5698;47.332;11.180;2022-09-23T14:10:54;20.00;62.50
11284;DHT22;5698;47.332;11.180;2022-09-23T14:13:23;19.80;63.10
11284;DHT22;5698;47.332;11.180;2022-09-23T14:15:53;19.50;63.90
11284;DHT22;5698;47.332;11.180;2022-09-23T14:18:32;19.20;65.70
11284;DHT22;5698;47.332;11.180;2022-09-23T14:21:00;18.90;66.10
11284;DHT22;5698;47.332;11.180;2022-09-23T14:23:28;18.70;67.90
11284;DHT22;5698;47.332;11.180;2022-09-23T14:25:57;18.60;68.90
11284;DHT22;5698;47.332;11.180;2022-09-23T14:28:26;18.60;69.20
11284;DHT22;5698;47.332;11.180;2022-09-23T14:30:54;18.60;68.70
11284;DHT22;5698;47.332;11.180;2022-09-23T14:33:25;18.50;68.90
11284;DHT22;5698;47.332;11.180;2022-09-23T14:35:56;18.40;69.50
11284;DHT22;5698;47.332;11.180;2022-09-23T14:38:28;18.20;70.50
11284;DHT22;5698;47.332;11.180;2022-09-23T14:41:19;18.10;71.20
11284;DHT22;5698;47.332;11.180;2022-09-23T14:43:50;17.90;71.60
11284;DHT22;5698;47.332;11.180;2022-09-23T14:46:20;17.70;72.00
11284;DHT22;5698;47.332;11.180;2022-09-23T14:48:53;17.70;72.60
11284;DHT22;5698;47.332;11.180;2022-09-23T14:51:27;17.60;73.20
11284;DHT22;5698;47.332;11.180;2022-09-23T14:57:25;17.30;74.90
11284;DHT22;5698;47.332;11.180;2022-09-23T14:59:54;17.00;75.30
11284;DHT22;5698;47.332;11.180;2022-09-23T15:02:32;16.90;75.50
11284;DHT22;5698;47.332;11.180;2022-09-23T15:05:14;16.70;76.80
11284;DHT22;5698;47.332;11.180;2022-09-23T15:07:43;16.60;77.30
11284;DHT22;5698;47.332;11.180;2022-09-23T15:10:17;16.50;78.80
11284;DHT22;5698;47.332;11.180;2022-09-23T15:12:50;16.40;80.40
11284;DHT22;5698;47.332;11.180;2022-09-23T15:15:18;16.30;80.10
11284;DHT22;5698;47.332;11.180;2022-09-23T15:17:46;16.30;80.30
11284;DHT22;5698;47.332;11.180;2022-09-23T15:20:21;16.10;81.40
11284;DHT22;5698;47.332;11.180;2022-09-23T15:22:50;15.90;81.80
11284;DHT22;5698;47.332;11.180;2022-09-23T15:25:20;15.90;82.60
11284;DHT22;5698;47.332;11.180;2022-09-23T15:28:12;15.90;83.20
11284;DHT22;5698;47.332;11.180;2022-09-23T15:30:41;15.60;86.20
11284;DHT22;5698;47.332;11.180;2022-09-23T15:33:11;15.40;85.90
11284;DHT22;5698;47.332;11.180;2022-09-23T15:35:41;15.30;86.50
11284;DHT22;5698;47.332;11.180;2022-09-23T15:38:11;15.20;87.50
11284;DHT22;5698;47.332;11.180;2022-09-23T15:40:38;15.20;87.10
11284;DHT22;5698;47.332;11.180;2022-09-23T15:43:15;15.30;87.00
11284;DHT22;5698;47.332;11.180;2022-09-23T15:45:45;15.20;88.10
11284;DHT22;5698;47.332;11.180;2022-09-23T15:48:14;15.10;87.90
11284;DHT22;5698;47.332;11.180;2022-09-23T15:50:42;15.10;88.60
11284;DHT22;5698;47.332;11.180;2022-09-23T15:53:13;15.00;89.30
11284;DHT22;5698;47.332;11.180;2022-09-23T15:55:42;15.00;90.10
11284;DHT22;5698;47.332;11.180;2022-09-23T15:58:11;14.90;90.50
11284;DHT22;5698;47.332;11.180;2022-09-23T16:00:38;14.80;90.80
11284;DHT22;5698;47.332;11.180;2022-09-23T16:03:05;14.40;92.30
11284;DHT22;5698;47.332;11.180;2022-09-23T16:05:35;14.10;93.40
11284;DHT22;5698;47.332;11.180;2022-09-23T16:08:02;13.90;94.70
11284;DHT22;5698;47.332;11.180;2022-09-23T16:10:30;13.70;94.70
11284;DHT22;5698;47.332;11.180;2022-09-23T16:12:59;13.60;94.60
11284;DHT22;5698;47.332;11.180;2022-09-23T16:15:29;13.70;93.80